Time;durP1;ratioP1;P1;durP2;ratioP2;P2;SDS_P1;SDS_P2;PMS_P1;PMS_P2;Temp;Humidity;BMP_temperature;BMP_pressure;BME280_temperature;BME280_humidity;BME280_pressure;Samples;Min_cycle;Max_cycle;Signal;HPM_P1;HPM_P2
2022/03/01 00:01:22;;;;;;;1.70;0.70;;;19.90;56.70;;;;;;5051440;28;20074;-66
2022/03/01 00:03:48;;;;;;;1.60;0.50;;;19.90;56.70;;;;;;5054452;28;20368;-66
2022/03/01 00:06:14;;;;;;;1.00;0.80;;;19.90;56.80;;;;;;5036402;28;20025;-66
2022/03/01 00:08:39;;;;;;;0.70;0.50;;;19.80;56.70;;;;;;5054291;28;20024;-66
2022/03/01 00:11:05;;;;;;;3.10;0.50;;;19.90;56.80;;;;;;5054359;28;20060;-66
2022/03/01 00:13:30;;;;;;;0.90;0.50;;;19.90;56.80;;;;;;5053967;28;20027;-66
2022/03/01 00:15:56;;;;;;;1.48;0.60;;;19.80;56.70;;;;;;5054472;28;20032;-66
2022/03/01 00:18:22;;;;;;;0.60;0.60;;;19.80;56.80;;;;;;5054047;28;20071;-66
2022/03/01 00:20:47;;;;;;;0.65;0.50;;;19.80;56.90;;;;;;5053733;28;20025;-66
2022/03/01 00:23:13;;;;;;;0.85;0.50;;;19.80;56.90;;;;;;5053526;28;20028;-66
2022/03/01 00:25:38;;;;;;;1.52;0.50;;;19.80;56.90;;;;;;5053850;28;20106;-66
2022/03/01 00:28:04;;;;;;;1.75;0.50;;;19.70;56.90;;;;;;5054006;28;20021;-66
2022/03/01 00:30:30;;;;;;;1.00;0.50;;;19.70;56.90;;;;;;5053595;28;20029;-66
2022/03/01 00:32:55;;;;;;;0.77;0.63;;;19.70;56.90;;;;;;5053721;28;20017;-66
2022/03/01 00:35:21;;;;;;;0.85;0.43;;;19.70;57.00;;;;;;5053815;28;20032;-67
2022/03/01 00:37:46;;;;;;;1.17;0.50;;;19.70;57.00;;;;;;5036021;28;20102;-66
2022/03/01 00:40:12;;;;;;;0.60;0.60;;;19.60;57.00;;;;;;5053542;28;20039;-66
2022/03/01 00:42:38;;;;;;;0.50;0.50;;;19.70;57.00;;;;;;5011010;28;20032;-66
2022/03/01 00:45:04;;;;;;;1.00;0.70;;;19.60;57.10;;;;;;5035709;28;20025;-66
2022/03/01 00:47:30;;;;;;;1.05;0.57;;;19.60;57.10;;;;;;5054035;28;20018;-66
2022/03/01 00:49:57;;;;;;;0.40;0.40;;;19.60;57.10;;;;;;5037477;28;20071;-67
2022/03/01 00:52:23;;;;;;;1.73;0.75;;;19.60;57.10;;;;;;5054735;28;20021;-66
2022/03/01 00:54:49;;;;;;;0.52;0.47;;;19.60;57.10;;;;;;5054696;28;20029;-66
2022/03/01 00:57:14;;;;;;;1.13;0.60;;;19.50;57.20;;;;;;5020781;28;20052;-66
2022/03/01 00:59:40;;;;;;;2.50;0.70;;;19.50;57.20;;;;;;5054511;28;20575;-66
2022/03/01 01:02:06;;;;;;;0.55;0.40;;;19.50;57.20;;;;;;5054775;28;20017;-66
2022/03/01 01:04:31;;;;;;;0.82;0.52;;;19.50;57.20;;;;;;5036787;28;20036;-66
2022/03/01 01:06:57;;;;;;;1.13;0.60;;;19.50;57.30;;;;;;5036914;28;20024;-67
2022/03/01 01:09:23;;;;;;;1.48;0.57;;;19.50;57.30;;;;;;5054430;28;20032;-66
2022/03/01 01:11:48;;;;;;;1.00;0.40;;;19.50;57.30;;;;;;5036781;28;20029;-66
2022/03/01 01:14:14;;;;;;;0.52;0.52;;;19.50;57.30;;;;;;5054188;28;20514;-66
2022/03/01 01:16:40;;;;;;;0.63;0.47;;;19.40;57.40;;;;;;5020201;28;20506;-67
2022/03/01 01:19:05;;;;;;;0.50;0.45;;;19.40;57.30;;;;;;5054527;28;20024;-66
2022/03/01 01:24:15;;;;;;;2.78;0.40;;;19.40;57.40;;;;;;5021533;28;20395;-66
2022/03/01 01:26:40;;;;;;;0.85;0.57;;;19.40;57.50;;;;;;5034326;28;20475;-66
2022/03/01 01:29:06;;;;;;;0.43;0.43;;;19.40;57.50;;;;;;5034102;28;20172;-66
2022/03/01 01:31:32;;;;;;;0.85;0.50;;;19.40;57.50;;;;;;5034129;28;20068;-66
2022/03/01 01:33:57;;;;;;;1.77;0.45;;;19.30;57.50;;;;;;5034215;28;20410;-66
2022/03/01 01:36:25;;;;;;;3.85;0.47;;;19.30;57.50;;;;;;5034134;28;20555;-66
2022/03/01 01:38:51;;;;;;;1.02;0.40;;;19.30;57.50;;;;;;5034053;28;20036;-66
2022/03/01 01:41:17;;;;;;;0.65;0.50;;;19.30;57.60;;;;;;5033873;28;20124;-66
2022/03/01 01:43:42;;;;;;;0.50;0.50;;;19.30;57.60;;;;;;5033743;28;20543;-66
2022/03/01 01:46:08;;;;;;;2.00;0.63;;;19.30;57.60;;;;;;5032743;28;20566;-66
2022/03/01 01:48:34;;;;;;;1.65;0.47;;;19.30;57.60;;;;;;5033865;28;20028;-66
2022/03/01 01:50:59;;;;;;;0.55;0.50;;;19.30;57.60;;;;;;5033743;28;20032;-66
2022/03/01 01:53:25;;;;;;;1.75;0.70;;;19.30;57.60;;;;;;5033694;28;20056;-66
2022/03/01 01:55:50;;;;;;;0.40;0.40;;;19.30;57.70;;;;;;5032653;28;20029;-66
2022/03/01 01:58:17;;;;;;;1.80;0.70;;;19.30;57.70;;;;;;5033595;28;20498;-66
2022/03/01 02:00:44;;;;;;;0.90;0.50;;;19.20;57.70;;;;;;5032237;28;20064;-66
2022/03/01 02:03:09;;;;;;;0.77;0.50;;;19.20;57.70;;;;;;5033927;28;20021;-66
2022/03/01 02:05:35;;;;;;;1.10;0.50;;;19.20;57.70;;;;;;5039838;28;20024;-67
2022/03/01 02:08:00;;;;;;;2.47;0.57;;;19.20;57.70;;;;;;5033478;28;20040;-67
2022/03/01 02:10:27;;;;;;;0.77;0.57;;;19.20;57.80;;;;;;5048951;28;20025;-66
2022/03/01 02:12:52;;;;;;;1.88;0.70;;;19.20;57.80;;;;;;5048543;28;20498;-66
2022/03/01 02:15:18;;;;;;;0.88;0.70;;;19.20;57.80;;;;;;5033623;28;20029;-66
2022/03/01 02:17:44;;;;;;;0.50;0.40;;;19.20;57.90;;;;;;5033361;28;20052;-66
2022/03/01 02:20:10;;;;;;;0.75;0.45;;;19.20;57.90;;;;;;5033281;28;20390;-66
2022/03/01 02:22:35;;;;;;;0.47;0.47;;;19.20;58.00;;;;;;5048194;28;20524;-66
2022/03/01 02:25:01;;;;;;;1.15;0.38;;;19.20;58.00;;;;;;5053269;28;20029;-66
2022/03/01 02:27:27;;;;;;;1.02;0.52;;;19.20;58.00;;;;;;5052750;28;20027;-66
2022/03/01 02:29:52;;;;;;;0.77;0.40;;;19.10;58.00;;;;;;5053078;28;20049;-66
2022/03/01 02:32:18;;;;;;;0.40;0.40;;;19.20;58.00;;;;;;5053013;28;20486;-66
2022/03/01 02:34:44;;;;;;;1.52;0.70;;;19.10;58.10;;;;;;5051794;28;20104;-67
2022/03/01 02:37:10;;;;;;;0.75;0.38;;;19.10;58.10;;;;;;5052973;28;20083;-66
2022/03/01 02:39:35;;;;;;;0.95;0.47;;;19.10;58.10;;;;;;5052782;28;20107;-66
2022/03/01 02:42:01;;;;;;;0.38;0.30;;;19.10;58.10;;;;;;5052794;28;20055;-66
2022/03/01 02:44:27;;;;;;;0.60;0.60;;;19.10;58.10;;;;;;5051359;28;20021;-66
2022/03/01 02:46:52;;;;;;;0.73;0.60;;;19.10;58.10;;;;;;5035086;28;20031;-66
2022/03/01 02:49:18;;;;;;;1.35;0.70;;;19.10;58.20;;;;;;5051736;28;20096;-66
2022/03/01 02:51:43;;;;;;;0.40;0.40;;;19.10;58.20;;;;;;5052741;28;20060;-66
2022/03/01 02:54:09;;;;;;;0.57;0.40;;;19.10;58.30;;;;;;5051416;28;20029;-66
2022/03/01 02:56:35;;;;;;;0.50;0.47;;;19.10;58.30;;;;;;5052246;28;20078;-66
2022/03/01 02:59:00;;;;;;;0.40;0.40;;;19.10;58.30;;;;;;5051480;28;20078;-66
2022/03/01 03:01:27;;;;;;;0.80;0.45;;;19.00;58.30;;;;;;5052606;28;20025;-66
2022/03/01 03:03:52;;;;;;;2.00;0.50;;;19.10;58.40;;;;;;5052670;28;20053;-66
2022/03/01 03:06:18;;;;;;;0.90;0.50;;;19.10;58.30;;;;;;5051289;28;20045;-66
2022/03/01 03:08:44;;;;;;;1.05;0.45;;;19.10;58.40;;;;;;5052401;28;20106;-66
2022/03/01 03:11:09;;;;;;;0.55;0.55;;;19.00;58.30;;;;;;5051184;28;20151;-66
2022/03/01 03:13:36;;;;;;;0.60;0.38;;;19.00;58.40;;;;;;5034664;28;20028;-66
2022/03/01 03:16:02;;;;;;;0.43;0.40;;;19.00;58.40;;;;;;5052323;28;20032;-66
2022/03/01 03:18:28;;;;;;;0.95;0.40;;;19.00;58.40;;;;;;5050372;28;20017;-66
2022/03/01 03:20:54;;;;;;;0.95;0.50;;;19.00;58.50;;;;;;5051953;28;20029;-66
2022/03/01 03:23:20;;;;;;;0.45;0.45;;;19.00;58.50;;;;;;5052062;28;20082;-66
2022/03/01 03:25:46;;;;;;;1.70;0.50;;;19.00;58.60;;;;;;5052305;28;20430;-66
2022/03/01 03:28:11;;;;;;;0.77;0.40;;;19.00;58.60;;;;;;5051113;28;20483;-66
2022/03/01 03:30:37;;;;;;;0.40;0.40;;;19.00;58.60;;;;;;5052137;28;20368;-66
2022/03/01 03:33:02;;;;;;;0.30;0.30;;;19.00;58.60;;;;;;5052247;28;20052;-66
2022/03/01 03:35:28;;;;;;;0.82;0.68;;;19.00;58.60;;;;;;5051977;28;20071;-66
2022/03/01 03:37:54;;;;;;;0.80;0.40;;;19.00;58.70;;;;;;5051178;28;20082;-66
2022/03/01 03:40:19;;;;;;;1.13;0.55;;;19.00;58.70;;;;;;5050955;28;20029;-66
2022/03/01 03:42:45;;;;;;;1.60;0.55;;;19.00;58.70;;;;;;5051088;28;20033;-66
2022/03/01 03:45:11;;;;;;;0.20;0.20;;;18.90;58.60;;;;;;5033569;28;20083;-66
2022/03/01 03:47:37;;;;;;;1.90;0.30;;;18.90;58.70;;;;;;5033346;28;20029;-66
2022/03/01 03:50:03;;;;;;;0.40;0.30;;;19.00;58.80;;;;;;5051210;28;20036;-66
2022/03/01 03:52:29;;;;;;;1.95;0.60;;;19.00;58.80;;;;;;5051446;28;20021;-66
2022/03/01 03:54:55;;;;;;;0.40;0.40;;;18.90;58.80;;;;;;5034374;28;20032;-66
2022/03/01 03:57:20;;;;;;;0.73;0.57;;;18.90;58.80;;;;;;5051965;28;20028;-66
2022/03/01 03:59:46;;;;;;;0.35;0.35;;;18.90;58.80;;;;;;5051967;28;20036;-66
2022/03/01 04:02:11;;;;;;;1.40;0.50;;;18.90;58.90;;;;;;5051890;28;20091;-66
2022/03/01 04:04:37;;;;;;;0.73;0.40;;;18.90;58.90;;;;;;5050923;28;20075;-66
2022/03/01 04:07:03;;;;;;;1.80;0.50;;;18.90;58.90;;;;;;5051375;28;20467;-66
2022/03/01 04:09:29;;;;;;;0.57;0.40;;;18.90;58.90;;;;;;5034047;28;20021;-66
2022/03/01 04:11:54;;;;;;;0.98;0.40;;;18.90;58.90;;;;;;5051975;28;20033;-66
2022/03/01 04:14:20;;;;;;;0.60;0.43;;;18.90;59.00;;;;;;5051929;28;20029;-66
2022/03/01 04:16:46;;;;;;;0.50;0.40;;;18.90;59.00;;;;;;5033898;28;20063;-66
2022/03/01 04:19:11;;;;;;;0.55;0.55;;;18.90;59.00;;;;;;5034287;28;20021;-66
2022/03/01 04:21:37;;;;;;;0.45;0.30;;;18.90;59.00;;;;;;5051131;28;20418;-66
2022/03/01 04:24:03;;;;;;;0.40;0.40;;;18.90;59.00;;;;;;5035416;28;20049;-66
2022/03/01 04:26:29;;;;;;;0.50;0.50;;;18.90;59.10;;;;;;5014197;28;20025;-66
2022/03/01 04:28:55;;;;;;;0.52;0.50;;;18.90;59.10;;;;;;5030662;28;20060;-66
2022/03/01 04:31:21;;;;;;;0.68;0.35;;;18.90;59.10;;;;;;5034294;28;20040;-66
2022/03/01 04:33:47;;;;;;;1.88;0.55;;;18.90;59.10;;;;;;5035316;28;20021;-66
2022/03/01 04:36:13;;;;;;;0.40;0.38;;;18.90;59.20;;;;;;5017228;28;20473;-66
2022/03/01 04:38:39;;;;;;;0.50;0.30;;;18.90;59.20;;;;;;5017296;28;20101;-66
2022/03/01 04:41:04;;;;;;;0.30;0.30;;;18.80;59.10;;;;;;5034107;28;20022;-66
2022/03/01 04:43:30;;;;;;;0.50;0.40;;;18.80;59.10;;;;;;5017347;28;20022;-67
2022/03/01 04:45:56;;;;;;;0.60;0.40;;;18.90;59.20;;;;;;5035172;28;20101;-67
2022/03/01 04:48:23;;;;;;;0.50;0.40;;;18.80;59.20;;;;;;5033818;28;20026;-66
2022/03/01 04:50:49;;;;;;;0.30;0.30;;;18.80;59.20;;;;;;5033573;28;20025;-66
2022/03/01 04:53:15;;;;;;;0.40;0.40;;;18.80;59.20;;;;;;5033700;28;20014;-66
2022/03/01 04:55:41;;;;;;;0.77;0.43;;;18.80;59.20;;;;;;5033575;28;20022;-66
2022/03/01 04:58:06;;;;;;;1.48;0.40;;;18.80;59.20;;;;;;5033750;28;20017;-66
2022/03/01 05:00:32;;;;;;;0.45;0.40;;;18.80;59.20;;;;;;5034982;28;20034;-66
2022/03/01 05:02:58;;;;;;;0.57;0.38;;;18.90;59.40;;;;;;5034667;28;20021;-66
2022/03/01 05:05:23;;;;;;;0.40;0.40;;;18.80;59.30;;;;;;5034454;28;20032;-66
2022/03/01 05:07:49;;;;;;;0.40;0.30;;;18.80;59.40;;;;;;5034646;28;20021;-66
2022/03/01 05:10:19;;;;;;;0.65;0.40;;;18.80;59.30;;;;;;5033363;28;20029;-66
2022/03/01 05:12:52;;;;;;;0.30;0.30;;;18.80;59.40;;;;;;5033569;28;20026;-66
2022/03/01 05:15:18;;;;;;;1.05;0.68;;;18.80;59.40;;;;;;5033366;28;20483;-66
2022/03/01 05:17:44;;;;;;;0.40;0.40;;;18.80;59.50;;;;;;5034496;28;20033;-67
2022/03/01 05:20:10;;;;;;;1.38;0.40;;;18.80;59.50;;;;;;5034226;28;20055;-66
2022/03/01 05:22:36;;;;;;;0.35;0.32;;;18.80;59.50;;;;;;5032763;28;20551;-66
2022/03/01 05:25:03;;;;;;;0.32;0.30;;;18.80;59.50;;;;;;5016602;28;20603;-66
2022/03/01 05:27:30;;;;;;;1.10;0.50;;;18.80;59.50;;;;;;5033218;28;20507;-66
2022/03/01 05:29:55;;;;;;;0.20;0.20;;;18.80;59.50;;;;;;5016567;28;20021;-66
2022/03/01 05:32:21;;;;;;;0.47;0.38;;;18.80;59.60;;;;;;5033110;28;20391;-66
2022/03/01 05:34:47;;;;;;;1.30;0.50;;;18.70;59.50;;;;;;5032573;28;20045;-66
2022/03/01 05:37:12;;;;;;;0.50;0.40;;;18.70;59.50;;;;;;5033054;28;20479;-66
2022/03/01 05:39:38;;;;;;;1.35;0.60;;;18.80;59.60;;;;;;5034069;28;20029;-66
2022/03/01 05:42:04;;;;;;;0.65;0.40;;;18.70;59.60;;;;;;5033017;28;20021;-66
2022/03/01 05:44:29;;;;;;;0.40;0.30;;;18.80;60.60;;;;;;5033052;28;20064;-66
2022/03/01 05:46:55;;;;;;;0.20;0.20;;;18.70;59.60;;;;;;5033847;28;20032;-66
2022/03/01 05:49:21;;;;;;;0.52;0.30;;;18.70;59.70;;;;;;5032389;28;20045;-66
2022/03/01 05:51:47;;;;;;;0.85;0.30;;;18.70;59.70;;;;;;5033908;28;20078;-66
2022/03/01 05:54:12;;;;;;;0.52;0.50;;;18.70;59.70;;;;;;5032742;28;20112;-66
2022/03/01 05:56:38;;;;;;;0.63;0.30;;;18.70;59.70;;;;;;5032644;28;20033;-66
2022/03/01 05:59:04;;;;;;;0.73;0.28;;;18.70;59.70;;;;;;5033802;28;20041;-66
2022/03/01 06:01:29;;;;;;;0.98;0.45;;;18.70;59.70;;;;;;5032411;28;20029;-66
2022/03/01 06:03:55;;;;;;;0.40;0.30;;;18.70;59.80;;;;;;5033361;28;20026;-66
2022/03/01 06:06:21;;;;;;;0.75;0.30;;;18.70;59.70;;;;;;5033594;28;20024;-66
2022/03/01 06:08:46;;;;;;;0.38;0.30;;;18.70;59.80;;;;;;5033460;28;20025;-66
2022/03/01 06:11:12;;;;;;;0.35;0.35;;;18.70;59.80;;;;;;5033623;28;20060;-66
2022/03/01 06:13:38;;;;;;;0.40;0.32;;;18.70;59.80;;;;;;5033397;28;20084;-66
2022/03/01 06:16:04;;;;;;;0.52;0.30;;;18.70;59.90;;;;;;5016268;28;20025;-66
2022/03/01 06:18:30;;;;;;;0.75;0.30;;;18.70;59.90;;;;;;5029445;28;20519;-66
2022/03/01 06:20:55;;;;;;;0.85;0.38;;;18.70;59.90;;;;;;5023862;28;20112;-66
2022/03/01 06:23:21;;;;;;;0.82;0.40;;;18.70;59.90;;;;;;5049568;28;20502;-66
2022/03/01 06:25:47;;;;;;;0.30;0.30;;;18.70;59.90;;;;;;5033507;28;20048;-66
2022/03/01 06:28:12;;;;;;;0.45;0.38;;;18.70;59.90;;;;;;5048153;28;20048;-67
2022/03/01 06:30:38;;;;;;;1.05;0.30;;;18.70;60.20;;;;;;5045821;28;20037;-67
2022/03/01 06:33:04;;;;;;;0.70;0.40;;;18.70;60.20;;;;;;5050618;28;20025;-67
2022/03/01 06:35:30;;;;;;;0.32;0.30;;;18.70;60.20;;;;;;5053118;28;20083;-66
2022/03/01 06:37:55;;;;;;;0.30;0.30;;;18.70;60.20;;;;;;5035003;28;20033;-66
2022/03/01 06:40:21;;;;;;;0.35;0.30;;;18.80;60.30;;;;;;5052991;28;20059;-66
2022/03/01 06:42:48;;;;;;;0.43;0.40;;;18.80;60.20;;;;;;5052623;28;20082;-65
2022/03/01 06:45:13;;;;;;;1.05;0.20;;;18.80;60.00;;;;;;5052885;28;20143;-65
2022/03/01 06:47:39;;;;;;;0.25;0.20;;;18.80;60.00;;;;;;5052426;28;20102;-66
2022/03/01 06:50:05;;;;;;;0.20;0.20;;;18.80;59.90;;;;;;5043079;28;20090;-66
2022/03/01 06:52:32;;;;;;;0.20;0.20;;;18.80;59.90;;;;;;5035266;28;20445;-66
2022/03/01 06:54:58;;;;;;;4.38;0.20;;;18.80;59.90;;;;;;5032639;28;20039;-66
2022/03/01 06:57:24;;;;;;;0.28;0.20;;;18.80;59.90;;;;;;5032590;28;20484;-66
2022/03/01 06:59:53;;;;;;;0.30;0.20;;;18.80;59.80;;;;;;5015052;28;20075;-66
2022/03/01 07:02:19;;;;;;;1.27;0.30;;;18.80;59.80;;;;;;5032384;28;20049;-66
2022/03/01 07:04:44;;;;;;;0.10;0.10;;;18.80;59.80;;;;;;5015000;28;20506;-66
2022/03/01 07:07:10;;;;;;;0.50;0.30;;;18.80;59.70;;;;;;5032151;28;20026;-66
2022/03/01 07:09:36;;;;;;;0.20;0.20;;;18.80;59.70;;;;;;5032671;28;20021;-66
2022/03/01 07:12:01;;;;;;;0.38;0.38;;;18.80;59.70;;;;;;5014907;28;20375;-66
2022/03/01 07:14:27;;;;;;;0.35;0.32;;;18.80;59.70;;;;;;5032540;28;20029;-66
2022/03/01 07:16:53;;;;;;;0.20;0.20;;;18.80;59.70;;;;;;5031969;28;20022;-65
2022/03/01 07:19:18;;;;;;;0.25;0.25;;;18.80;59.60;;;;;;5014771;28;20029;-66
2022/03/01 07:21:44;;;;;;;0.20;0.20;;;18.80;59.60;;;;;;5032251;28;20052;-66
2022/03/01 07:24:10;;;;;;;0.20;0.20;;;18.80;59.60;;;;;;5029928;28;20040;-66
2022/03/01 07:26:36;;;;;;;0.70;0.30;;;18.80;59.60;;;;;;5047930;28;20523;-65
2022/03/01 07:29:02;;;;;;;0.20;0.20;;;18.90;59.60;;;;;;5047644;28;20029;-66
2022/03/01 07:31:28;;;;;;;0.20;0.10;;;18.90;59.60;;;;;;5032230;28;20104;-66
2022/03/01 07:33:53;;;;;;;0.22;0.22;;;18.90;59.60;;;;;;5047474;28;20032;-66
2022/03/01 07:36:19;;;;;;;0.30;0.30;;;18.90;60.60;;;;;;5032135;28;20357;-66
2022/03/01 07:38:44;;;;;;;0.30;0.30;;;18.90;59.50;;;;;;5032348;28;20041;-65
2022/03/01 07:41:10;;;;;;;0.20;0.20;;;18.90;59.50;;;;;;5032175;28;20033;-65
2022/03/01 07:43:36;;;;;;;0.30;0.25;;;18.90;59.50;;;;;;5049102;28;20021;-66
2022/03/01 07:46:03;;;;;;;0.28;0.28;;;18.90;59.50;;;;;;5040418;28;20091;-66
2022/03/01 07:48:28;;;;;;;0.35;0.20;;;18.90;59.50;;;;;;5031223;28;20067;-65
2022/03/01 07:50:54;;;;;;;0.47;0.20;;;18.90;59.50;;;;;;5040939;28;20025;-66
2022/03/01 07:53:20;;;;;;;0.20;0.20;;;18.90;59.40;;;;;;5031608;28;20029;-66
2022/03/01 07:55:46;;;;;;;0.85;0.30;;;18.90;59.40;;;;;;5040621;28;20013;-66
2022/03/01 07:58:11;;;;;;;9.85;0.98;;;18.90;59.50;;;;;;5043538;28;20096;-67
2022/03/01 08:00:37;;;;;;;7.93;1.10;;;18.90;59.50;;;;;;5027960;28;20108;-66
2022/03/01 08:03:03;;;;;;;7.93;2.40;;;18.90;59.50;;;;;;5047063;28;20029;-66
2022/03/01 08:05:28;;;;;;;10.15;1.67;;;19.00;59.50;;;;;;5035130;28;20391;-66
2022/03/01 08:07:56;;;;;;;6.43;1.73;;;19.00;59.50;;;;;;5054637;28;20482;-66
2022/03/01 08:10:22;;;;;;;9.05;1.70;;;19.00;59.50;;;;;;5037653;28;20044;-66
2022/03/01 08:12:47;;;;;;;3.60;1.00;;;19.00;59.50;;;;;;5038020;28;20056;-66
2022/03/01 08:15:13;;;;;;;5.78;1.45;;;19.00;59.50;;;;;;5037654;28;20028;-66
2022/03/01 08:17:49;;;;;;;5.53;1.40;;;19.00;59.50;;;;;;5037720;28;20040;-66
2022/03/01 08:20:15;;;;;;;4.15;1.25;;;19.10;59.50;;;;;;5055485;28;20079;-66
2022/03/01 08:22:41;;;;;;;7.78;1.50;;;19.00;59.50;;;;;;5015901;28;20049;-66
2022/03/01 08:25:07;;;;;;;4.63;1.30;;;19.00;59.50;;;;;;5034764;28;20018;-66
2022/03/01 08:27:33;;;;;;;2.97;0.90;;;19.00;59.50;;;;;;5035138;28;20427;-66
2022/03/01 08:29:58;;;;;;;4.82;1.25;;;19.10;59.50;;;;;;5033905;28;20025;-66
2022/03/01 08:32:24;;;;;;;5.65;0.93;;;19.10;59.50;;;;;;5034026;28;20495;-66
2022/03/01 08:34:49;;;;;;;5.95;1.17;;;19.10;59.50;;;;;;5035324;28;20026;-66
2022/03/01 08:37:15;;;;;;;4.38;1.10;;;19.10;59.50;;;;;;5035203;28;20104;-66
2022/03/01 08:39:41;;;;;;;4.85;1.02;;;19.10;59.50;;;;;;5033936;28;20033;-66
2022/03/01 08:42:06;;;;;;;3.38;1.02;;;19.10;59.50;;;;;;5035046;28;20136;-66
2022/03/01 08:44:32;;;;;;;3.20;1.20;;;19.10;59.50;;;;;;5033735;28;20399;-66
2022/03/01 08:46:57;;;;;;;3.58;1.25;;;19.10;59.50;;;;;;5034954;28;20041;-66
2022/03/01 08:49:23;;;;;;;4.45;1.50;;;19.10;59.50;;;;;;5033739;28;20028;-66
2022/03/01 08:51:49;;;;;;;3.22;0.80;;;19.00;59.40;;;;;;5035176;28;20033;-66
2022/03/01 08:54:14;;;;;;;3.83;1.25;;;19.00;59.40;;;;;;5033639;28;20030;-66
2022/03/01 08:56:40;;;;;;;3.03;0.80;;;19.00;59.40;;;;;;5034960;28;20029;-66
2022/03/01 08:59:05;;;;;;;3.00;0.90;;;19.00;59.40;;;;;;5034533;28;20033;-66
2022/03/01 09:01:32;;;;;;;2.88;0.90;;;19.10;59.50;;;;;;5034843;28;20068;-66
2022/03/01 09:03:59;;;;;;;3.15;1.20;;;19.10;59.40;;;;;;5033737;28;20390;-66
2022/03/01 09:06:25;;;;;;;2.63;1.08;;;19.10;59.40;;;;;;5034836;28;20022;-66
2022/03/01 09:08:51;;;;;;;1.08;0.70;;;19.10;59.50;;;;;;5034464;28;20104;-66
2022/03/01 09:11:16;;;;;;;5.35;1.08;;;19.10;59.50;;;;;;5034411;28;20025;-66
2022/03/01 09:13:42;;;;;;;2.65;0.90;;;19.10;59.50;;;;;;5034615;28;20075;-66
2022/03/01 09:16:08;;;;;;;2.75;1.00;;;19.10;59.40;;;;;;5034479;28;20486;-66
2022/03/01 09:18:34;;;;;;;1.63;0.80;;;19.10;59.40;;;;;;5033406;28;20028;-66
2022/03/01 09:21:00;;;;;;;1.60;0.80;;;19.10;59.40;;;;;;5016385;28;20031;-66
2022/03/01 09:23:26;;;;;;;2.97;1.00;;;19.10;59.40;;;;;;5015405;28;20029;-66
2022/03/01 09:25:52;;;;;;;1.58;0.80;;;19.10;59.40;;;;;;5033378;28;20022;-66
2022/03/01 09:28:17;;;;;;;1.20;0.60;;;19.10;59.40;;;;;;5032227;28;20029;-66
2022/03/01 09:30:44;;;;;;;1.55;0.80;;;19.10;59.40;;;;;;5032042;28;20487;-66
2022/03/01 09:33:09;;;;;;;1.60;0.82;;;19.10;59.50;;;;;;5033169;28;20025;-66
2022/03/01 09:35:35;;;;;;;1.33;0.65;;;19.10;59.40;;;;;;5033155;28;20090;-66
2022/03/01 09:38:00;;;;;;;2.55;0.90;;;19.10;59.30;;;;;;5032162;28;20041;-66
2022/03/01 09:40:26;;;;;;;1.83;0.90;;;19.10;59.40;;;;;;5031648;28;20025;-66
2022/03/01 09:42:52;;;;;;;4.18;1.30;;;19.10;59.40;;;;;;5031762;28;20029;-66
2022/03/01 09:45:18;;;;;;;2.78;0.75;;;19.10;59.40;;;;;;5032948;28;20487;-66
2022/03/01 09:47:44;;;;;;;2.80;1.00;;;19.10;59.30;;;;;;5015345;28;20084;-66
2022/03/01 09:50:10;;;;;;;2.10;0.80;;;19.10;59.40;;;;;;5031689;28;20025;-66
2022/03/01 09:52:36;;;;;;;1.83;0.70;;;19.10;59.30;;;;;;5031880;28;20032;-66
2022/03/01 09:55:02;;;;;;;3.13;0.70;;;19.10;59.30;;;;;;5032699;28;20115;-66
2022/03/01 09:57:27;;;;;;;2.55;0.90;;;19.10;59.30;;;;;;5032773;28;20025;-66
2022/03/01 09:59:53;;;;;;;3.00;1.10;;;19.10;59.30;;;;;;5032966;28;20013;-66
2022/03/01 10:02:19;;;;;;;1.15;0.77;;;19.10;59.30;;;;;;5032674;28;20025;-66
2022/03/01 10:04:54;;;;;;;1.17;0.60;;;19.10;59.30;;;;;;5031472;28;20049;-66
2022/03/01 10:07:27;;;;;;;3.47;0.75;;;19.10;59.30;;;;;;5031648;28;20029;-66
2022/03/01 10:09:53;;;;;;;2.42;0.80;;;19.10;59.30;;;;;;5032502;28;20052;-66
2022/03/01 10:12:26;;;;;;;1.92;0.80;;;19.10;59.30;;;;;;5031318;28;20403;-66
2022/03/01 10:15:06;;;;;;;1.77;0.82;;;19.10;59.30;;;;;;5032600;28;20022;-66
2022/03/01 10:17:37;;;;;;;1.10;0.85;;;19.20;59.30;;;;;;5032591;28;20030;-66
2022/03/01 10:20:04;;;;;;;2.35;0.70;;;19.10;59.30;;;;;;5032514;28;20541;-66
2022/03/01 10:22:30;;;;;;;1.02;0.60;;;19.10;59.30;;;;;;4983721;28;1370037;-66
2022/03/01 10:25:04;;;;;;;0.80;0.65;;;19.10;59.30;;;;;;5031940;28;20053;-66
2022/03/01 10:27:30;;;;;;;1.65;0.95;;;19.10;59.30;;;;;;5015009;28;20022;-66
2022/03/01 10:29:56;;;;;;;1.58;0.70;;;19.10;59.30;;;;;;5015694;28;20026;-66
2022/03/01 10:32:22;;;;;;;2.83;0.80;;;19.10;59.30;;;;;;5032955;28;20025;-66
2022/03/01 10:34:59;;;;;;;1.30;0.68;;;19.10;59.30;;;;;;5015246;28;20037;-66
2022/03/01 10:37:29;;;;;;;0.60;0.47;;;19.10;59.20;;;;;;5015413;28;20104;-66
2022/03/01 10:40:22;;;;;;;1.48;0.50;;;19.10;59.20;;;;;;5032941;28;20067;-66
2022/03/01 10:43:09;;;;;;;2.00;0.75;;;19.10;59.10;;;;;;5032743;28;20052;-66
2022/03/01 10:45:54;;;;;;;1.38;0.88;;;19.10;59.20;;;;;;5031783;28;20087;-66
2022/03/01 10:48:30;;;;;;;2.03;0.60;;;19.10;59.30;;;;;;5031682;28;20029;-66
2022/03/01 10:51:04;;;;;;;1.45;0.73;;;19.10;59.20;;;;;;5015275;28;20021;-66
2022/03/01 10:53:35;;;;;;;1.25;0.60;;;19.10;59.30;;;;;;5031258;28;20020;-66
2022/03/01 10:56:08;;;;;;;1.83;1.13;;;19.10;59.20;;;;;;5031556;28;20013;-66
2022/03/01 10:58:36;;;;;;;1.65;0.60;;;19.10;59.20;;;;;;5031489;28;20022;-66
2022/03/01 11:01:02;;;;;;;1.38;0.60;;;19.10;59.30;;;;;;5032681;28;20029;-66
2022/03/01 11:03:30;;;;;;;1.00;0.60;;;19.10;59.20;;;;;;5031249;28;20029;-66
2022/03/01 11:05:55;;;;;;;0.55;0.52;;;19.10;59.20;;;;;;5032630;28;20032;-66
2022/03/01 11:08:23;;;;;;;2.60;0.60;;;19.10;59.20;;;;;;5030957;28;20100;-66
2022/03/01 11:10:49;;;;;;;1.52;0.50;;;19.10;59.10;;;;;;5031263;28;20025;-66
2022/03/01 11:13:14;;;;;;;0.70;0.57;;;19.10;59.20;;;;;;5032473;28;20033;-66
2022/03/01 11:16:12;;;;;;;1.55;0.52;;;19.10;59.20;;;;;;5032525;28;20041;-66
2022/03/01 11:19:00;;;;;;;1.25;0.60;;;19.10;59.00;;;;;;4971392;28;20500;-66
2022/03/01 11:21:26;;;;;;;1.08;0.45;;;19.10;59.20;;;;;;4960333;28;20054;-66
2022/03/01 11:23:53;;;;;;;1.33;0.50;;;19.10;59.20;;;;;;4974449;28;20057;-66
2022/03/01 11:26:18;;;;;;;2.75;0.75;;;19.10;59.10;;;;;;4958405;28;20452;-66
2022/03/01 11:28:56;;;;;;;1.08;0.50;;;19.10;59.10;;;;;;4990788;28;20030;-66
2022/03/01 11:31:24;;;;;;;1.52;0.60;;;19.10;59.10;;;;;;4974370;28;20030;-66
2022/03/01 11:34:13;;;;;;;0.40;0.40;;;19.10;59.10;;;;;;4974562;28;20125;-66
2022/03/01 11:36:38;;;;;;;1.20;0.60;;;19.10;59.00;;;;;;4974510;28;20026;-66
2022/03/01 11:39:08;;;;;;;0.75;0.43;;;19.10;59.10;;;;;;4975317;28;20041;-66
2022/03/01 11:41:48;;;;;;;1.08;0.60;;;19.00;59.00;;;;;;4994654;28;20031;-66
2022/03/01 11:44:18;;;;;;;0.82;0.57;;;19.10;59.00;;;;;;4994635;28;20125;-66
2022/03/01 11:46:44;;;;;;;0.60;0.50;;;19.10;59.10;;;;;;4978579;28;20078;-66
2022/03/01 11:49:11;;;;;;;0.90;0.40;;;19.10;59.10;;;;;;4978757;28;20027;-66
2022/03/01 11:51:45;;;;;;;1.05;0.45;;;19.10;59.10;;;;;;4978321;28;20177;-66
2022/03/01 11:54:11;;;;;;;1.10;0.60;;;19.10;59.00;;;;;;5007388;28;20041;-66
2022/03/01 11:56:38;;;;;;;0.52;0.40;;;19.00;59.00;;;;;;5038162;28;20029;-66
2022/03/01 11:59:05;;;;;;;0.50;0.40;;;19.10;59.10;;;;;;5054838;28;20036;-66
2022/03/01 12:01:32;;;;;;;0.90;0.40;;;19.00;58.90;;;;;;5055635;28;20390;-66
2022/03/01 12:04:00;;;;;;;0.85;0.47;;;19.10;59.00;;;;;;5055782;28;20048;-66
2022/03/01 12:06:27;;;;;;;2.67;0.70;;;19.10;59.00;;;;;;5054146;28;20017;-66
2022/03/01 12:09:00;;;;;;;0.40;0.30;;;19.10;59.10;;;;;;5054668;28;20230;-66
2022/03/01 12:11:40;;;;;;;1.08;0.50;;;19.10;59.00;;;;;;5037744;28;20171;-66
2022/03/01 12:14:09;;;;;;;0.57;0.40;;;19.10;58.90;;;;;;5055688;28;20024;-66
2022/03/01 12:16:36;;;;;;;0.70;0.60;;;19.10;59.00;;;;;;5054411;28;20075;-66
2022/03/01 12:19:07;;;;;;;0.90;0.73;;;19.10;59.00;;;;;;5055483;28;20063;-66
2022/03/01 12:21:32;;;;;;;0.90;0.55;;;19.10;59.00;;;;;;5053764;28;20049;-66
2022/03/01 12:23:58;;;;;;;1.52;0.60;;;19.10;59.00;;;;;;5055286;28;20403;-66
2022/03/01 12:26:23;;;;;;;0.40;0.40;;;19.10;59.00;;;;;;5055489;28;20028;-66
2022/03/01 12:28:53;;;;;;;0.75;0.47;;;19.10;59.00;;;;;;5037505;28;20025;-66
2022/03/01 12:31:22;;;;;;;0.40;0.40;;;19.10;59.00;;;;;;5054226;28;20017;-66
2022/03/01 12:33:49;;;;;;;0.30;0.30;;;19.10;59.00;;;;;;5053976;28;20460;-66
2022/03/01 12:36:48;;;;;;;0.82;0.40;;;19.00;58.90;;;;;;5053899;28;20021;-66
2022/03/01 12:39:14;;;;;;;1.10;0.35;;;19.10;58.90;;;;;;5052051;28;20457;-66
2022/03/01 12:41:41;;;;;;;0.73;0.50;;;19.00;58.90;;;;;;5037201;28;20394;-66
2022/03/01 12:44:08;;;;;;;0.50;0.40;;;19.00;58.90;;;;;;5054969;28;20016;-66
2022/03/01 12:46:34;;;;;;;2.08;0.40;;;19.10;59.00;;;;;;5054952;28;20017;-66